Time;durP1;ratioP1;P1;durP2;ratioP2;P2;SDS_P1;SDS_P2;PMS_P1;PMS_P2;Temp;Humidity;BMP_temperature;BMP_pressure;BME280_temperature;BME280_humidity;BME280_pressure;Samples;Min_cycle;Max_cycle;Signal;HPM_P1;HPM_P2
2022/04/02 00:00:55;;;;;;;;;;;3.50;99.90;;;;;;5073231;28;19912;-86
2022/04/02 00:03:21;;;;;;;;;;;3.40;99.90;;;;;;5075608;28;19913;-84
2022/04/02 00:05:47;;;;;;;;;;;3.30;99.90;;;;;;5077113;28;20075;-84
2022/04/02 00:08:12;;;;;;;;;;;3.10;99.90;;;;;;5077001;28;19966;-85
2022/04/02 00:10:38;;;;;;;;;;;3.10;99.90;;;;;;5076894;28;19962;-84
2022/04/02 00:13:04;;;;;;;;;;;3.20;99.90;;;;;;5077069;28;19962;-83
2022/04/02 00:15:29;;;;;;;;;;;3.10;99.90;;;;;;5076987;28;19908;-84
2022/04/02 00:17:55;;;;;;;;;;;3.20;99.90;;;;;;5076478;28;20351;-84
2022/04/02 00:20:21;;;;;;;;;;;3.50;99.90;;;;;;5076791;28;19908;-86
2022/04/02 00:25:31;;;;;;;;;;;3.30;99.90;;;;;;5076831;28;19915;-83
2022/04/02 00:27:57;;;;;;;;;;;3.10;99.90;;;;;;5076664;28;19908;-86
2022/04/02 00:30:22;;;;;;;;;;;3.00;99.90;;;;;;5076667;28;19908;-84
2022/04/02 00:32:48;;;;;;;;;;;2.90;99.90;;;;;;5076490;28;19908;-84
2022/04/02 00:35:14;;;;;;;;;;;2.90;99.90;;;;;;5058521;28;19912;-82
2022/04/02 00:37:40;;;;;;;;;;;2.80;99.90;;;;;;5076332;28;19912;-86
2022/04/02 00:40:06;;;;;;;;;;;2.90;99.90;;;;;;5076417;28;20369;-84
2022/04/02 00:42:31;;;;;;;;;;;3.00;99.90;;;;;;5076322;28;19915;-86
2022/04/02 00:44:57;;;;;;;;;;;3.30;99.90;;;;;;5076262;28;19909;-86
2022/04/02 00:47:23;;;;;;;;;;;3.50;99.90;;;;;;5076875;28;19932;-84
2022/04/02 00:49:51;;;;;;;;;;;3.50;99.90;;;;;;5076213;28;19908;-83
2022/04/02 00:52:17;;;;;;;;;;;3.20;99.90;;;;;;5076174;28;19908;-86
2022/04/02 00:54:42;;;;;;;;;;;2.80;99.90;;;;;;5058071;28;19948;-83
2022/04/02 00:57:08;;;;;;;;;;;2.80;99.90;;;;;;5075983;28;20258;-84
2022/04/02 00:59:34;;;;;;;;;;;2.80;99.90;;;;;;5076150;28;19915;-85
2022/04/02 01:02:01;;;;;;;;;;;2.90;99.90;;;;;;5076163;28;19909;-85
2022/04/02 01:04:27;;;;;;;;;;;2.80;99.90;;;;;;5075939;28;19956;-86
2022/04/02 01:06:52;;;;;;;;;;;2.70;99.90;;;;;;5057926;28;19913;-85
2022/04/02 01:09:18;;;;;;;;;;;2.70;99.90;;;;;;5057865;28;19939;-84
2022/04/02 01:11:45;;;;;;;;;;;2.70;99.90;;;;;;5075808;28;20007;-85
2022/04/02 01:14:11;;;;;;;;;;;2.80;99.90;;;;;;5057343;28;19908;-85
2022/04/02 01:16:37;;;;;;;;;;;2.90;99.90;;;;;;5075843;28;20384;-83
2022/04/02 01:19:03;;;;;;;;;;;3.00;99.90;;;;;;5075342;28;19924;-85
2022/04/02 01:21:29;;;;;;;;;;;3.00;99.90;;;;;;5057660;28;20336;-83
2022/04/02 01:23:55;;;;;;;;;;;3.20;99.90;;;;;;5057542;28;19915;-86
2022/04/02 01:26:21;;;;;;;;;;;3.10;99.90;;;;;;5057599;28;19930;-85
2022/04/02 01:28:53;;;;;;;;;;;2.90;99.90;;;;;;5075480;28;20396;-85
2022/04/02 01:31:20;;;;;;;;;;;2.90;99.90;;;;;;5075593;28;19909;-84
2022/04/02 01:33:48;;;;;;;;;;;3.10;99.90;;;;;;5057390;28;19915;-84
2022/04/02 01:36:14;;;;;;;;;;;3.30;99.90;;;;;;5057331;28;19920;-84
2022/04/02 01:38:40;;;;;;;;;;;3.40;99.90;;;;;;5057188;28;19919;-83
2022/04/02 01:41:05;;;;;;;;;;;3.40;99.90;;;;;;5075288;28;19909;-86
2022/04/02 01:43:31;;;;;;;;;;;3.20;99.90;;;;;;5075132;28;19916;-87
2022/04/02 01:45:57;;;;;;;;;;;2.90;99.90;;;;;;5057155;28;19943;-87
2022/04/02 01:48:23;;;;;;;;;;;2.80;99.90;;;;;;5075061;28;19908;-85
2022/04/02 01:50:49;;;;;;;;;;;2.80;99.90;;;;;;5074938;28;20387;-87
2022/04/02 01:53:15;;;;;;;;;;;2.70;99.90;;;;;;5057043;28;20262;-83
2022/04/02 01:55:40;;;;;;;;;;;2.90;99.90;;;;;;5056866;28;19915;-85
2022/04/02 01:58:06;;;;;;;;;;;3.00;99.90;;;;;;5056863;28;20288;-84
2022/04/02 02:00:32;;;;;;;;;;;2.80;99.90;;;;;;5074859;28;20002;-84
2022/04/02 02:02:57;;;;;;;;;;;2.70;99.90;;;;;;5056920;28;20284;-85
2022/04/02 02:05:23;;;;;;;;;;;2.60;99.90;;;;;;5074915;28;19974;-84
2022/04/02 02:07:49;;;;;;;;;;;2.60;99.90;;;;;;5074917;28;19966;-83
2022/04/02 02:10:15;;;;;;;;;;;2.60;99.90;;;;;;5056687;28;19908;-85
2022/04/02 02:12:41;;;;;;;;;;;2.50;99.90;;;;;;5074682;28;20292;-84
2022/04/02 02:15:07;;;;;;;;;;;2.50;99.90;;;;;;5074565;28;19912;-85
2022/04/02 02:17:32;;;;;;;;;;;2.40;99.90;;;;;;5056262;28;19918;-86
2022/04/02 02:19:58;;;;;;;;;;;2.40;99.90;;;;;;5056543;28;19991;-85
2022/04/02 02:22:23;;;;;;;;;;;2.40;99.90;;;;;;5074405;28;19912;-87
2022/04/02 02:24:49;;;;;;;;;;;2.30;99.90;;;;;;5055873;28;19909;-83
2022/04/02 02:27:14;;;;;;;;;;;2.30;99.90;;;;;;5074664;28;19916;-85
2022/04/02 02:29:40;;;;;;;;;;;2.30;99.90;;;;;;5074248;28;19909;-84
2022/04/02 02:32:06;;;;;;;;;;;2.30;99.90;;;;;;5074455;28;19909;-86
2022/04/02 02:37:16;;;;;;;;;;;2.40;99.90;;;;;;5073827;28;19946;-86
2022/04/02 02:39:42;;;;;;;;;;;2.40;99.90;;;;;;5074200;28;19974;-84
2022/04/02 02:42:08;;;;;;;;;;;2.40;99.90;;;;;;5055864;28;19908;-85
2022/04/02 02:44:33;;;;;;;;;;;2.30;99.90;;;;;;5056033;28;19919;-86
2022/04/02 02:46:59;;;;;;;;;;;2.30;99.90;;;;;;5056005;28;19908;-85
2022/04/02 02:49:24;;;;;;;;;;;2.20;99.90;;;;;;5055975;28;19909;-84
2022/04/02 02:51:51;;;;;;;;;;;2.10;99.90;;;;;;5073877;28;19916;-86
2022/04/02 02:54:16;;;;;;;;;;;2.00;99.90;;;;;;5073764;28;19915;-85
2022/04/02 02:56:42;;;;;;;;;;;1.90;99.90;;;;;;5073808;28;19909;-84
2022/04/02 02:59:08;;;;;;;;;;;1.80;99.90;;;;;;5073781;28;19912;-84
2022/04/02 03:01:33;;;;;;;;;;;1.90;99.90;;;;;;5073940;28;19966;-84
2022/04/02 03:03:59;;;;;;;;;;;2.20;99.90;;;;;;5055787;28;19963;-83
2022/04/02 03:06:24;;;;;;;;;;;2.30;99.90;;;;;;5055782;28;19908;-86
2022/04/02 03:08:50;;;;;;;;;;;2.40;99.90;;;;;;5055753;28;19915;-85
2022/04/02 03:11:16;;;;;;;;;;;2.50;99.90;;;;;;5073782;28;19909;-83
2022/04/02 03:13:42;;;;;;;;;;;2.50;99.90;;;;;;5074034;28;19909;-86
2022/04/02 03:16:08;;;;;;;;;;;2.30;99.90;;;;;;5073594;28;20000;-84
2022/04/02 03:18:34;;;;;;;;;;;2.00;99.90;;;;;;5055281;28;19931;-86
2022/04/02 03:20:59;;;;;;;;;;;1.90;99.90;;;;;;5073591;28;19947;-84
2022/04/02 03:23:25;;;;;;;;;;;1.80;99.90;;;;;;5073768;28;20340;-83
2022/04/02 03:25:51;;;;;;;;;;;1.90;99.90;;;;;;5055553;28;19915;-84
2022/04/02 03:28:17;;;;;;;;;;;2.10;99.90;;;;;;5073598;28;20373;-84
2022/04/02 03:30:42;;;;;;;;;;;2.40;99.90;;;;;;5073501;28;19909;-84
2022/04/02 03:33:09;;;;;;;;;;;2.40;99.90;;;;;;5073657;28;19908;-83
2022/04/02 03:35:34;;;;;;;;;;;2.30;99.90;;;;;;5073610;28;19908;-83
2022/04/02 03:38:00;;;;;;;;;;;2.40;99.90;;;;;;5076873;28;19919;-83
2022/04/02 03:40:26;;;;;;;;;;;2.50;99.90;;;;;;5076180;28;20393;-84
2022/04/02 03:42:53;;;;;;;;;;;2.40;99.90;;;;;;5059508;28;19908;-86
2022/04/02 03:45:19;;;;;;;;;;;2.40;99.90;;;;;;5077605;28;19915;-84
2022/04/02 03:47:45;;;;;;;;;;;2.40;99.90;;;;;;5059283;28;19915;-85
2022/04/02 03:50:11;;;;;;;;;;;2.30;99.90;;;;;;5077479;28;19915;-84
2022/04/02 03:52:36;;;;;;;;;;;2.20;99.90;;;;;;5077342;28;20284;-85
2022/04/02 03:55:03;;;;;;;;;;;2.20;99.90;;;;;;5077148;28;19909;-84
2022/04/02 03:57:28;;;;;;;;;;;2.10;99.90;;;;;;5059206;28;19967;-83
2022/04/02 03:59:54;;;;;;;;;;;2.10;99.90;;;;;;5059101;28;19971;-83
2022/04/02 04:02:21;;;;;;;;;;;2.00;99.90;;;;;;5077047;28;19909;-84
2022/04/02 04:04:46;;;;;;;;;;;2.10;99.90;;;;;;5059123;28;19915;-83
2022/04/02 04:07:12;;;;;;;;;;;2.20;99.90;;;;;;5077009;28;19908;-85
2022/04/02 04:09:40;;;;;;;;;;;2.20;99.90;;;;;;5076991;28;20102;-84
2022/04/02 04:12:06;;;;;;;;;;;2.00;99.90;;;;;;5077383;28;19908;-86
2022/04/02 04:14:32;;;;;;;;;;;1.90;99.90;;;;;;5058921;28;20395;-83
2022/04/02 04:16:57;;;;;;;;;;;1.80;99.90;;;;;;5076830;28;19913;-85
2022/04/02 04:19:23;;;;;;;;;;;1.80;99.90;;;;;;5058543;28;19925;-82
2022/04/02 04:21:49;;;;;;;;;;;1.90;99.90;;;;;;5058875;28;19908;-81
2022/04/02 04:24:14;;;;;;;;;;;1.90;99.90;;;;;;5076701;28;20353;-84
2022/04/02 04:26:41;;;;;;;;;;;2.10;99.90;;;;;;5076635;28;20285;-85
2022/04/02 04:29:06;;;;;;;;;;;2.20;99.90;;;;;;5076557;28;19916;-84
2022/04/02 04:31:32;;;;;;;;;;;2.20;99.90;;;;;;5058595;28;19908;-84
2022/04/02 04:33:57;;;;;;;;;;;2.20;99.90;;;;;;5076443;28;19908;-84
2022/04/02 04:36:24;;;;;;;;;;;2.20;99.90;;;;;;5058572;28;19950;-83
2022/04/02 04:38:50;;;;;;;;;;;2.20;99.90;;;;;;5076337;28;19912;-84
2022/04/02 04:41:19;;;;;;;;;;;2.20;99.90;;;;;;5076467;28;20368;-84
2022/04/02 04:43:48;;;;;;;;;;;2.20;99.90;;;;;;5076326;28;19916;-84
2022/04/02 04:46:14;;;;;;;;;;;2.10;99.90;;;;;;5076401;28;19912;-85
2022/04/02 04:48:39;;;;;;;;;;;2.00;99.90;;;;;;5075541;28;19915;-84
2022/04/02 04:51:05;;;;;;;;;;;1.70;99.90;;;;;;5058162;28;19908;-84
2022/04/02 04:53:31;;;;;;;;;;;1.50;99.90;;;;;;5076170;28;19908;-85
2022/04/02 04:55:57;;;;;;;;;;;1.30;99.90;;;;;;5076544;28;20364;-85
2022/04/02 04:58:23;;;;;;;;;;;1.30;99.90;;;;;;5076111;28;19996;-86
2022/04/02 05:00:48;;;;;;;;;;;1.30;99.90;;;;;;5076082;28;19910;-86
2022/04/02 05:03:14;;;;;;;;;;;1.20;99.90;;;;;;5075933;28;19909;-85
2022/04/02 05:05:40;;;;;;;;;;;1.20;99.90;;;;;;5076333;28;19908;-82
2022/04/02 05:08:09;;;;;;;;;;;1.40;99.90;;;;;;5057861;28;19932;-85
2022/04/02 05:10:34;;;;;;;;;;;1.40;99.90;;;;;;5057861;28;19913;-85
2022/04/02 05:13:03;;;;;;;;;;;1.40;99.90;;;;;;5075799;28;19908;-83
2022/04/02 05:15:29;;;;;;;;;;;1.40;99.90;;;;;;5075749;28;19916;-85
2022/04/02 05:17:55;;;;;;;;;;;1.30;99.90;;;;;;5075268;28;19920;-83
2022/04/02 05:20:21;;;;;;;;;;;1.50;99.90;;;;;;5075863;28;19921;-84
2022/04/02 05:22:47;;;;;;;;;;;1.50;99.90;;;;;;5075769;28;19913;-85
2022/04/02 05:25:12;;;;;;;;;;;1.50;99.90;;;;;;5057550;28;19909;-86
2022/04/02 05:27:38;;;;;;;;;;;1.40;99.90;;;;;;5075558;28;20011;-85
2022/04/02 05:30:04;;;;;;;;;;;1.70;99.90;;;;;;5057549;28;19963;-85
2022/04/02 05:32:30;;;;;;;;;;;1.80;99.90;;;;;;5075333;28;19915;-84
2022/04/02 05:34:56;;;;;;;;;;;1.50;99.90;;;;;;5075562;28;19966;-85
2022/04/02 05:37:23;;;;;;;;;;;1.40;99.90;;;;;;5075430;28;20323;-83
2022/04/02 05:39:48;;;;;;;;;;;1.30;99.90;;;;;;5057276;28;19908;-84
2022/04/02 05:42:14;;;;;;;;;;;1.20;99.90;;;;;;5075248;28;19913;-86
2022/04/02 05:44:40;;;;;;;;;;;1.40;99.90;;;;;;5075194;28;20375;-84
2022/04/02 05:47:05;;;;;;;;;;;1.60;99.90;;;;;;5075159;28;19908;-84
2022/04/02 05:49:31;;;;;;;;;;;1.60;99.90;;;;;;5057226;28;20417;-85
2022/04/02 05:51:57;;;;;;;;;;;1.50;99.90;;;;;;5075072;28;19990;-87
2022/04/02 05:54:23;;;;;;;;;;;1.40;99.90;;;;;;5075131;28;19908;-85
2022/04/02 05:56:48;;;;;;;;;;;1.40;99.90;;;;;;5074974;28;19908;-85
2022/04/02 05:59:14;;;;;;;;;;;1.70;99.90;;;;;;5056599;28;19916;-85
2022/04/02 06:01:40;;;;;;;;;;;1.90;99.90;;;;;;5074078;28;19908;-85
2022/04/02 06:04:05;;;;;;;;;;;2.00;99.90;;;;;;5074772;28;19909;-84
2022/04/02 06:06:31;;;;;;;;;;;1.70;99.90;;;;;;5056789;28;19909;-84
2022/04/02 06:08:57;;;;;;;;;;;1.50;99.90;;;;;;5074882;28;20388;-83
2022/04/02 06:11:23;;;;;;;;;;;1.50;99.90;;;;;;5074702;28;20369;-84
2022/04/02 06:13:49;;;;;;;;;;;1.50;99.90;;;;;;5056573;28;19954;-84
2022/04/02 06:16:14;;;;;;;;;;;1.60;99.90;;;;;;5074771;28;20277;-85
2022/04/02 06:18:40;;;;;;;;;;;1.70;99.90;;;;;;5072946;28;19920;-84
2022/04/02 06:21:06;;;;;;;;;;;2.00;99.90;;;;;;5074389;28;20322;-85
2022/04/02 06:23:31;;;;;;;;;;;2.30;99.90;;;;;;5056463;28;19915;-83
2022/04/02 06:25:57;;;;;;;;;;;2.70;99.90;;;;;;5056402;28;19954;-85
2022/04/02 06:28:23;;;;;;;;;;;3.10;99.90;;;;;;5074365;28;20000;-84
2022/04/02 06:30:48;;;;;;;;;;;4.10;99.90;;;;;;5074347;28;20365;-82
2022/04/02 06:33:14;;;;;;;;;;;4.90;99.90;;;;;;5056285;28;20392;-84
2022/04/02 06:35:40;;;;;;;;;;;5.00;99.90;;;;;;5056294;28;19909;-85
2022/04/02 06:38:05;;;;;;;;;;;5.00;99.90;;;;;;5074077;28;20276;-83
2022/04/02 06:40:31;;;;;;;;;;;4.80;99.90;;;;;;5074080;28;19931;-82
2022/04/02 06:42:57;;;;;;;;;;;4.90;99.90;;;;;;5072743;28;19958;-81
2022/04/02 06:45:23;;;;;;;;;;;4.90;99.90;;;;;;5073967;28;20404;-84
2022/04/02 06:47:49;;;;;;;;;;;5.60;99.90;;;;;;5074374;28;19915;-83
2022/04/02 06:50:15;;;;;;;;;;;6.40;99.90;;;;;;5074079;28;19991;-84
2022/04/02 06:52:41;;;;;;;;;;;7.50;99.90;;;;;;5055767;28;19908;-82
2022/04/02 06:55:11;;;;;;;;;;;7.20;99.90;;;;;;5074214;28;19934;-82
2022/04/02 06:57:41;;;;;;;;;;;7.80;99.90;;;;;;5074374;28;19944;-83
2022/04/02 07:00:07;;;;;;;;;;;9.10;98.10;;;;;;5073813;28;19995;-83
2022/04/02 07:02:32;;;;;;;;;;;9.70;95.50;;;;;;5073745;28;19999;-82
2022/04/02 07:04:58;;;;;;;;;;;9.50;92.60;;;;;;5073766;28;19908;-83
2022/04/02 07:07:23;;;;;;;;;;;8.60;94.90;;;;;;5073741;28;19912;-84
2022/04/02 07:09:49;;;;;;;;;;;8.60;94.70;;;;;;5073676;28;20361;-84
2022/04/02 07:12:15;;;;;;;;;;;8.80;95.30;;;;;;5073291;28;20281;-83
2022/04/02 07:14:40;;;;;;;;;;;9.30;95.40;;;;;;5073678;28;19931;-84
2022/04/02 07:17:06;;;;;;;;;;;10.40;92.50;;;;;;5073918;28;19909;-82
2022/04/02 07:19:32;;;;;;;;;;;9.40;92.30;;;;;;5073227;28;20033;-82
2022/04/02 07:21:58;;;;;;;;;;;8.30;94.00;;;;;;5073623;28;20262;-84
2022/04/02 07:24:24;;;;;;;;;;;7.70;95.80;;;;;;5055579;28;19920;-84
2022/04/02 07:26:51;;;;;;;;;;;7.40;96.90;;;;;;5073662;28;19913;-82
2022/04/02 07:29:17;;;;;;;;;;;7.30;98.70;;;;;;5073559;28;20327;-84
2022/04/02 07:31:46;;;;;;;;;;;8.20;98.50;;;;;;5071982;28;19908;-83
2022/04/02 07:34:13;;;;;;;;;;;8.30;97.00;;;;;;5055262;28;19909;-84
2022/04/02 07:36:57;;;;;;;;;;;8.60;95.60;;;;;;5073432;28;19932;-85
2022/04/02 07:39:32;;;;;;;;;;;8.60;96.20;;;;;;5073368;28;19913;-83
2022/04/02 07:41:57;;;;;;;;;;;8.70;95.60;;;;;;5073440;28;19951;-83
2022/04/02 07:44:26;;;;;;;;;;;9.30;96.10;;;;;;5073259;28;20368;-84
2022/04/02 07:46:52;;;;;;;;;;;9.90;95.60;;;;;;5055249;28;20364;-83
2022/04/02 07:49:23;;;;;;;;;;;10.50;94.10;;;;;;5073304;28;20011;-83
2022/04/02 07:51:51;;;;;;;;;;;11.50;92.20;;;;;;5073656;28;19909;-84
2022/04/02 07:54:18;;;;;;;;;;;12.60;90.00;;;;;;5073206;28;19908;-83
2022/04/02 07:56:46;;;;;;;;;;;13.50;88.30;;;;;;5073175;28;19908;-84
2022/04/02 07:59:14;;;;;;;;;;;14.80;82.60;;;;;;5073421;28;19913;-85
2022/04/02 08:01:40;;;;;;;;;;;16.00;78.70;;;;;;5073200;28;19909;-84
2022/04/02 08:04:06;;;;;;;;;;;16.50;72.40;;;;;;5055072;28;20042;-83
2022/04/02 08:06:32;;;;;;;;;;;17.40;70.00;;;;;;5073155;28;20392;-83
2022/04/02 08:09:01;;;;;;;;;;;18.70;65.80;;;;;;5055055;28;19909;-84
2022/04/02 08:11:27;;;;;;;;;;;19.20;63.60;;;;;;5055171;28;19909;-84
2022/04/02 08:13:53;;;;;;;;;;;19.70;61.30;;;;;;5073085;28;19932;-83
2022/04/02 08:16:20;;;;;;;;;;;20.10;60.80;;;;;;5073086;28;19948;-83
2022/04/02 08:18:47;;;;;;;;;;;21.60;58.10;;;;;;5073063;28;19951;-84
2022/04/02 08:21:13;;;;;;;;;;;22.20;53.90;;;;;;5073404;28;19934;-83
2022/04/02 08:23:39;;;;;;;;;;;22.30;52.70;;;;;;5074087;28;20354;-84
2022/04/02 08:26:23;;;;;;;;;;;22.70;50.90;;;;;;5077063;28;19908;-86
2022/04/02 08:28:49;;;;;;;;;;;23.30;50.20;;;;;;5058649;28;19962;-83
2022/04/02 08:31:17;;;;;;;;;;;24.00;49.10;;;;;;5058681;28;19909;-83
2022/04/02 08:34:01;;;;;;;;;;;23.90;48.20;;;;;;5058505;28;20361;-83
2022/04/02 08:36:33;;;;;;;;;;;23.90;47.10;;;;;;5076446;28;19909;-83
2022/04/02 08:39:03;;;;;;;;;;;23.90;45.90;;;;;;5076735;28;19958;-82
2022/04/02 08:41:41;;;;;;;;;;;23.50;45.40;;;;;;5076886;28;19913;-83
2022/04/02 08:44:06;;;;;;;;;;;22.60;47.00;;;;;;5076412;28;19958;-84
2022/04/02 08:46:36;;;;;;;;;;;23.70;45.80;;;;;;5076296;28;19912;-83
2022/04/02 08:49:02;;;;;;;;;;;24.10;43.80;;;;;;5076780;28;19909;-82
2022/04/02 08:51:41;;;;;;;;;;;23.40;42.90;;;;;;5069219;28;19920;-84
2022/04/02 08:54:21;;;;;;;;;;;22.30;43.90;;;;;;5096351;28;19915;-85
2022/04/02 08:56:48;;;;;;;;;;;20.90;46.60;;;;;;5078274;28;19909;-84
2022/04/02 08:59:28;;;;;;;;;;;20.90;46.90;;;;;;5096747;28;19923;-85
2022/04/02 09:02:03;;;;;;;;;;;21.60;44.40;;;;;;5096776;28;20348;-83
2022/04/02 09:04:37;;;;;;;;;;;22.80;44.00;;;;;;5096862;28;20292;-84
2022/04/02 09:07:22;;;;;;;;;;;25.30;43.10;;;;;;5096471;28;19908;-85
2022/04/02 09:09:55;;;;;;;;;;;26.20;40.40;;;;;;5073984;28;19957;-84
2022/04/02 09:12:20;;;;;;;;;;;26.40;40.20;;;;;;5058429;28;20353;-84
2022/04/02 09:14:59;;;;;;;;;;;26.20;39.10;;;;;;5076283;28;19915;-84
2022/04/02 09:17:31;;;;;;;;;;;25.80;38.50;;;;;;5057985;28;20384;-84
2022/04/02 09:20:13;;;;;;;;;;;25.50;38.60;;;;;;5060668;28;20007;-83
2022/04/02 09:22:38;;;;;;;;;;;26.50;38.60;;;;;;5074258;28;19995;-83
2022/04/02 09:25:16;;;;;;;;;;;24.50;38.30;;;;;;5075755;28;19952;-84
2022/04/02 09:27:50;;;;;;;;;;;25.60;38.50;;;;;;5075565;28;20058;-83
2022/04/02 09:30:34;;;;;;;;;;;27.60;37.00;;;;;;5067451;28;19999;-84
2022/04/02 09:33:01;;;;;;;;;;;27.80;36.40;;;;;;5055274;28;19909;-84
2022/04/02 09:35:34;;;;;;;;;;;30.50;35.50;;;;;;5055342;28;19915;-85
2022/04/02 09:38:02;;;;;;;;;;;30.60;33.40;;;;;;5055408;28;19913;-84
2022/04/02 09:40:54;;;;;;;;;;;27.40;34.50;;;;;;5063572;28;19908;-85
2022/04/02 09:43:20;;;;;;;;;;;28.80;33.70;;;;;;5054925;28;20007;-84
2022/04/02 09:46:11;;;;;;;;;;;27.80;33.80;;;;;;5057464;28;20388;-84
2022/04/02 09:48:41;;;;;;;;;;;27.40;34.60;;;;;;5059093;28;20021;-85
2022/04/02 09:51:09;;;;;;;;;;;30.40;33.50;;;;;;5040574;28;20412;-84
2022/04/02 09:53:38;;;;;;;;;;;31.90;32.30;;;;;;5055468;28;19954;-84
2022/04/02 09:56:04;;;;;;;;;;;28.90;29.80;;;;;;5055500;28;20418;-86
2022/04/02 09:58:33;;;;;;;;;;;30.10;31.80;;;;;;5037254;28;19959;-83
2022/04/02 10:01:21;;;;;;;;;;;28.10;32.40;;;;;;5036968;28;20385;-83
2022/04/02 10:03:53;;;;;;;;;;;29.20;33.60;;;;;;5054826;28;19908;-85
2022/04/02 10:06:25;;;;;;;;;;;31.20;31.30;;;;;;5037451;28;19956;-83
2022/04/02 10:09:04;;;;;;;;;;;32.20;31.70;;;;;;5037152;28;20365;-85
2022/04/02 10:11:30;;;;;;;;;;;34.80;30.30;;;;;;5070864;28;19909;-84
2022/04/02 10:13:59;;;;;;;;;;;33.20;31.20;;;;;;5074942;28;19961;-85
2022/04/02 10:16:25;;;;;;;;;;;34.30;30.40;;;;;;5056619;28;19915;-83
2022/04/02 10:18:55;;;;;;;;;;;35.10;29.70;;;;;;5085766;28;19974;-84
2022/04/02 10:21:21;;;;;;;;;;;36.20;29.50;;;;;;5076500;28;20368;-84
2022/04/02 10:23:51;;;;;;;;;;;36.40;29.20;;;;;;5076602;28;19915;-83
2022/04/02 10:26:20;;;;;;;;;;;35.30;28.00;;;;;;5076469;28;19915;-85
2022/04/02 10:28:53;;;;;;;;;;;34.30;27.70;;;;;;5076424;28;20330;-85
2022/04/02 10:31:46;;;;;;;;;;;35.10;27.90;;;;;;5076472;28;19908;-85
2022/04/02 10:34:14;;;;;;;;;;;35.70;28.30;;;;;;5078550;28;20041;-84
2022/04/02 10:36:51;;;;;;;;;;;36.80;28.00;;;;;;5094452;28;19908;-81
2022/04/02 10:39:21;;;;;;;;;;;38.60;28.10;;;;;;5094630;28;19912;-82
2022/04/02 10:41:48;;;;;;;;;;;39.70;27.80;;;;;;5075620;28;20327;-82
2022/04/02 10:44:20;;;;;;;;;;;39.30;27.80;;;;;;5094130;28;19916;-82
2022/04/02 10:46:48;;;;;;;;;;;38.10;27.70;;;;;;5075138;28;19908;-82
2022/04/02 10:49:21;;;;;;;;;;;38.30;27.30;;;;;;5094196;28;19922;-82
2022/04/02 10:51:48;;;;;;;;;;;37.80;27.50;;;;;;5075676;28;19916;-82
2022/04/02 10:54:16;;;;;;;;;;;36.50;28.40;;;;;;5093911;28;19916;-82
2022/04/02 10:56:43;;;;;;;;;;;37.60;27.40;;;;;;5094123;28;19908;-82
2022/04/02 10:59:09;;;;;;;;;;;39.10;27.90;;;;;;5075916;28;19908;-82
2022/04/02 11:01:38;;;;;;;;;;;38.10;27.20;;;;;;5094099;28;19912;-81
2022/04/02 11:04:07;;;;;;;;;;;39.70;27.20;;;;;;5075868;28;19912;-81
2022/04/02 11:06:46;;;;;;;;;;;40.10;27.40;;;;;;5075807;28;19908;-82
2022/04/02 11:09:25;;;;;;;;;;;39.70;27.20;;;;;;5094197;28;20284;-83
2022/04/02 11:12:09;;;;;;;;;;;37.90;26.60;;;;;;5093908;28;19908;-81
2022/04/02 11:14:39;;;;;;;;;;;30.20;29.00;;;;;;5093872;28;19958;-82
2022/04/02 11:17:05;;;;;;;;;;;30.90;29.80;;;;;;5093824;28;19912;-81
2022/04/02 11:22:24;;;;;;;;;;;32.80;28.90;;;;;;5093982;28;19978;-82
2022/04/02 11:24:56;;;;;;;;;;;34.90;28.00;;;;;;5093914;28;20284;-81
2022/04/02 11:27:23;;;;;;;;;;;32.00;28.30;;;;;;5075381;28;20322;-80
2022/04/02 11:29:50;;;;;;;;;;;32.10;29.60;;;;;;5093701;28;19919;-81
2022/04/02 11:32:22;;;;;;;;;;;36.10;28.00;;;;;;5075629;28;19957;-81
2022/04/02 11:34:48;;;;;;;;;;;34.80;27.80;;;;;;5093836;28;19909;-83
2022/04/02 11:37:16;;;;;;;;;;;35.00;27.90;;;;;;5093669;28;19912;-83
2022/04/02 11:39:52;;;;;;;;;;;36.50;27.60;;;;;;5093681;28;20001;-82
2022/04/02 11:42:24;;;;;;;;;;;38.40;27.30;;;;;;5075285;28;19915;-82
2022/04/02 11:44:51;;;;;;;;;;;37.00;27.50;;;;;;5093830;28;19908;-82
2022/04/02 11:47:25;;;;;;;;;;;39.90;27.70;;;;;;5093641;28;19958;-82
2022/04/02 11:49:53;;;;;;;;;;;40.20;27.00;;;;;;5093846;28;19912;-81
2022/04/02 11:52:18;;;;;;;;;;;32.70;27.60;;;;;;5075429;28;20360;-81
2022/04/02 11:54:47;;;;;;;;;;;33.10;28.30;;;;;;5093360;28;19966;-82
2022/04/02 11:57:13;;;;;;;;;;;36.00;27.90;;;;;;5093820;28;19909;-82
2022/04/02 11:59:49;;;;;;;;;;;37.70;27.00;;;;;;5097728;28;19938;-82
2022/04/02 12:02:32;;;;;;;;;;;37.00;27.00;;;;;;5097815;28;20002;-82
2022/04/02 12:05:02;;;;;;;;;;;37.30;27.00;;;;;;5097618;28;19943;-82
2022/04/02 12:07:40;;;;;;;;;;;37.20;27.30;;;;;;5097296;28;19908;-82
2022/04/02 12:10:11;;;;;;;;;;;32.60;27.90;;;;;;5097257;28;19995;-84
2022/04/02 12:12:41;;;;;;;;;;;30.50;29.90;;;;;;5097521;28;19914;-84
2022/04/02 12:15:11;;;;;;;;;;;29.20;28.90;;;;;;5097257;28;19912;-84
2022/04/02 12:17:38;;;;;;;;;;;24.60;30.50;;;;;;5078710;28;20342;-84
2022/04/02 12:20:07;;;;;;;;;;;28.50;31.40;;;;;;5097330;28;20336;-83
2022/04/02 12:22:38;;;;;;;;;;;35.50;28.30;;;;;;5097186;28;19908;-84
2022/04/02 12:25:05;;;;;;;;;;;38.80;26.60;;;;;;5097111;28;20003;-84
2022/04/02 12:27:32;;;;;;;;;;;39.50;26.30;;;;;;5096911;28;19947;-86
2022/04/02 12:29:59;;;;;;;;;;;41.70;26.30;;;;;;5078731;28;19908;-85
2022/04/02 12:32:34;;;;;;;;;;;42.90;25.70;;;;;;5097223;28;20016;-85
2022/04/02 12:34:59;;;;;;;;;;;39.20;24.20;;;;;;5078646;28;20276;-85
2022/04/02 12:37:28;;;;;;;;;;;37.20;27.20;;;;;;5096756;28;19916;-86
2022/04/02 12:39:53;;;;;;;;;;;39.00;25.90;;;;;;5096980;28;19908;-84
2022/04/02 12:42:38;;;;;;;;;;;37.70;26.50;;;;;;5096742;28;19914;-84
2022/04/02 12:45:05;;;;;;;;;;;38.80;26.70;;;;;;5078368;28;19914;-84
2022/04/02 12:47:32;;;;;;;;;;;42.20;26.80;;;;;;5096520;28;19953;-85
2022/04/02 12:50:08;;;;;;;;;;;42.80;26.20;;;;;;5096587;28;19908;-82
2022/04/02 12:52:42;;;;;;;;;;;41.00;25.50;;;;;;5078002;28;19961;-82
2022/04/02 12:55:08;;;;;;;;;;;42.20;25.80;;;;;;5078136;28;20007;-82
2022/04/02 12:57:34;;;;;;;;;;;43.20;25.80;;;;;;5096364;28;20364;-82
2022/04/02 13:00:00;;;;;;;;;;;44.50;25.40;;;;;;5096465;28;19948;-83
2022/04/02 13:02:29;;;;;;;;;;;39.90;24.50;;;;;;5096270;28;19958;-81
2022/04/02 13:04:56;;;;;;;;;;;32.20;27.20;;;;;;5096230;28;19908;-83
2022/04/02 13:07:22;;;;;;;;;;;26.90;29.60;;;;;;5078112;28;19908;-83
2022/04/02 13:09:51;;;;;;;;;;;34.20;28.80;;;;;;5095579;28;20006;-83
2022/04/02 13:12:21;;;;;;;;;;;32.00;28.10;;;;;;5096162;28;19908;-84
2022/04/02 13:14:52;;;;;;;;;;;31.10;28.80;;;;;;5077930;28;19991;-85
2022/04/02 13:17:18;;;;;;;;;;;37.60;28.10;;;;;;5096004;28;19959;-84
2022/04/02 13:22:28;;;;;;;;;;;34.70;26.90;;;;;;5095957;28;20418;-84
2022/04/02 13:24:57;;;;;;;;;;;35.20;28.30;;;;;;5095858;28;19912;-84
2022/04/02 13:27:32;;;;;;;;;;;39.60;27.50;;;;;;5077731;28;19908;-85
2022/04/02 13:30:12;;;;;;;;;;;41.20;26.40;;;;;;5095739;28;19912;-84
2022/04/02 13:32:47;;;;;;;;;;;42.00;26.20;;;;;;5077637;28;19951;-83
2022/04/02 13:35:31;;;;;;;;;;;39.40;26.90;;;;;;5095681;28;19912;-84
2022/04/02 13:38:16;;;;;;;;;;;32.70;26.00;;;;;;5095635;28;19908;-83
2022/04/02 13:40:44;;;;;;;;;;;27.00;28.90;;;;;;5095538;28;19908;-85
2022/04/02 13:43:10;;;;;;;;;;;33.60;28.60;;;;;;5077303;28;19908;-84
2022/04/02 13:45:37;;;;;;;;;;;29.90;28.70;;;;;;5095432;28;19915;-84
2022/04/02 13:48:03;;;;;;;;;;;25.40;30.50;;;;;;5095470;28;19915;-83
2022/04/02 13:50:29;;;;;;;;;;;23.30;32.20;;;;;;5095284;28;19999;-84
2022/04/02 13:53:15;;;;;;;;;;;30.50;31.30;;;;;;5077262;28;19908;-84
2022/04/02 13:55:43;;;;;;;;;;;35.50;28.00;;;;;;5076588;28;19908;-84
2022/04/02 13:58:09;;;;;;;;;;;38.00;27.80;;;;;;5095333;28;20017;-85
2022/04/02 14:00:39;;;;;;;;;;;37.70;28.00;;;;;;5076950;28;19912;-84
2022/04/02 14:03:06;;;;;;;;;;;37.00;28.00;;;;;;5077018;28;20022;-85
2022/04/02 14:05:32;;;;;;;;;;;36.00;28.70;;;;;;5076919;28;20288;-84
2022/04/02 14:08:02;;;;;;;;;;;36.00;27.60;;;;;;5094956;28;20439;-85
2022/04/02 14:10:37;;;;;;;;;;;36.20;27.30;;;;;;5076732;28;20000;-85
2022/04/02 14:13:24;;;;;;;;;;;35.80;27.60;;;;;;5076705;28;19915;-84
2022/04/02 14:15:54;;;;;;;;;;;35.10;27.40;;;;;;5094837;28;19908;-84
2022/04/02 14:18:38;;;;;;;;;;;35.00;27.50;;;;;;5094911;28;19920;-84
2022/04/02 14:21:05;;;;;;;;;;;33.80;27.10;;;;;;5093832;28;19919;-84
2022/04/02 14:23:36;;;;;;;;;;;33.60;27.20;;;;;;5076590;28;19967;-85
2022/04/02 14:26:11;;;;;;;;;;;33.60;27.30;;;;;;5076232;28;19912;-83
2022/04/02 14:28:57;;;;;;;;;;;33.50;27.60;;;;;;5094692;28;19912;-84
2022/04/02 14:31:42;;;;;;;;;;;33.50;28.10;;;;;;5076126;28;19912;-84
2022/04/02 14:34:22;;;;;;;;;;;33.00;28.40;;;;;;5094502;28;19915;-84
2022/04/02 14:37:07;;;;;;;;;;;33.00;28.20;;;;;;5075966;28;19908;-83
2022/04/02 14:39:51;;;;;;;;;;;33.20;28.40;;;;;;5076215;28;20365;-86
2022/04/02 14:42:35;;;;;;;;;;;31.30;28.60;;;;;;5076214;28;19953;-84